Time;durP1;ratioP1;P1;durP2;ratioP2;P2;SDS_P1;SDS_P2;PMS_P1;PMS_P2;Temp;Humidity;BMP_temperature;BMP_pressure;BME280_temperature;BME280_humidity;BME280_pressure;Samples;Min_cycle;Max_cycle;Signal;HPM_P1;HPM_P2
2022/11/06 00:00:17;;;;;;;18.42;11.10;;;;;;;1.63;100.00;97071.94;5035856;28;20037;-68
2022/11/06 00:02:43;;;;;;;18.08;10.68;;;;;;;1.68;100.00;97074.53;5043403;28;20037;-67
2022/11/06 00:07:52;;;;;;;19.30;10.98;;;;;;;1.77;100.00;97066.53;5044112;28;20037;-67
2022/11/06 00:10:18;;;;;;;18.35;11.88;;;;;;;1.69;100.00;97069.94;5038851;28;20154;-68
2022/11/06 00:12:44;;;;;;;16.30;10.07;;;;;;;1.55;100.00;97056.44;5044251;28;20106;-69
2022/11/06 00:15:10;;;;;;;17.48;10.48;;;;;;;1.65;100.00;97060.84;5040611;28;20061;-69
2022/11/06 00:17:37;;;;;;;20.17;11.75;;;;;;;1.64;100.00;97067.31;5044483;28;20056;-70
2022/11/06 00:20:04;;;;;;;19.65;12.48;;;;;;;1.71;100.00;97067.72;5041261;28;20451;-71
2022/11/06 00:22:35;;;;;;;19.00;11.32;;;;;;;1.74;100.00;97077.94;5044042;28;20052;-71
2022/11/06 00:25:01;;;;;;;18.73;12.07;;;;;;;1.81;100.00;97074.84;5043060;28;20045;-69
2022/11/06 00:27:27;;;;;;;19.15;10.15;;;;;;;1.95;100.00;97074.84;5039698;28;20037;-66
2022/11/06 00:29:52;;;;;;;18.55;11.77;;;;;;;1.97;100.00;97073.44;5044673;28;20041;-68
2022/11/06 00:32:17;;;;;;;18.60;11.32;;;;;;;2.00;100.00;97067.44;5038042;28;20111;-67
2022/11/06 00:34:43;;;;;;;16.13;10.40;;;;;;;1.97;100.00;97072.63;5034644;28;20048;-68
2022/11/06 00:37:08;;;;;;;24.88;13.00;;;;;;;2.01;100.00;97069.00;5036983;28;20603;-67
2022/11/06 00:39:34;;;;;;;22.67;11.85;;;;;;;1.99;100.00;97071.22;5042366;28;20444;-67
2022/11/06 00:41:59;;;;;;;18.08;11.15;;;;;;;2.02;100.00;97073.34;5044134;28;20103;-69
2022/11/06 00:44:24;;;;;;;21.75;10.93;;;;;;;2.03;100.00;97074.13;5039512;28;20390;-69
2022/11/06 00:46:50;;;;;;;15.95;10.00;;;;;;;1.97;100.00;97070.72;5045614;28;20037;-67
2022/11/06 00:49:15;;;;;;;15.10;9.27;;;;;;;1.91;100.00;97059.22;5042987;28;20052;-70
2022/11/06 00:51:41;;;;;;;14.02;9.02;;;;;;;1.66;100.00;97048.94;5044348;28;20492;-69
2022/11/06 00:54:10;;;;;;;16.50;9.65;;;;;;;1.38;100.00;97040.81;5039000;28;20119;-67
2022/11/06 00:56:35;;;;;;;16.83;11.50;;;;;;;1.59;100.00;97043.94;5042738;28;20398;-70
2022/11/06 00:59:04;;;;;;;17.08;10.18;;;;;;;1.53;100.00;97031.63;5040736;28;20049;-69
2022/11/06 01:01:33;;;;;;;18.25;11.50;;;;;;;1.66;100.00;97038.16;5040417;28;20045;-67
2022/11/06 01:04:05;;;;;;;17.40;10.50;;;;;;;1.71;100.00;97029.91;5042746;28;20041;-68
2022/11/06 01:06:33;;;;;;;20.27;10.65;;;;;;;1.72;100.00;97028.81;5041366;28;20044;-68
2022/11/06 01:08:59;;;;;;;20.88;10.07;;;;;;;1.71;100.00;97036.13;5034719;28;20041;-68
2022/11/06 01:11:45;;;;;;;16.92;10.63;;;;;;;1.81;100.00;97039.72;5036030;28;20131;-68
2022/11/06 01:14:13;;;;;;;20.20;10.77;;;;;;;1.86;100.00;97029.63;5038346;28;20114;-68
2022/11/06 01:16:39;;;;;;;17.33;11.10;;;;;;;1.88;100.00;97032.03;5042142;28;20055;-67
2022/11/06 01:19:05;;;;;;;19.77;11.38;;;;;;;1.98;100.00;97037.22;5037330;28;20149;-70
2022/11/06 01:21:36;;;;;;;17.65;10.25;;;;;;;1.98;100.00;97025.59;5041437;28;20409;-68
2022/11/06 01:24:08;;;;;;;22.90;10.70;;;;;;;2.06;100.00;97022.97;5043492;28;20425;-68
2022/11/06 01:26:35;;;;;;;19.88;10.63;;;;;;;2.06;100.00;97020.28;5022956;28;20199;-68
2022/11/06 01:29:00;;;;;;;17.08;10.95;;;;;;;2.14;100.00;97007.94;5030360;28;20041;-68
2022/11/06 01:31:30;;;;;;;20.63;10.35;;;;;;;2.09;100.00;97008.09;5033274;28;20136;-69
2022/11/06 01:33:57;;;;;;;16.90;10.23;;;;;;;2.04;100.00;97014.38;5042306;28;20112;-68
2022/11/06 01:36:23;;;;;;;18.90;9.93;;;;;;;2.00;100.00;97008.00;5036561;28;20506;-69
2022/11/06 01:38:50;;;;;;;16.65;10.02;;;;;;;1.97;100.00;97008.59;5038861;28;20053;-68
2022/11/06 01:41:23;;;;;;;15.48;9.98;;;;;;;1.97;100.00;97005.88;5038653;28;20049;-68
2022/11/06 01:43:51;;;;;;;15.40;10.02;;;;;;;1.98;100.00;97002.09;5044443;28;20077;-69
2022/11/06 01:46:22;;;;;;;15.77;9.82;;;;;;;1.96;100.00;97004.28;5037538;28;20420;-68
2022/11/06 01:49:06;;;;;;;15.00;10.15;;;;;;;2.01;100.00;97008.78;5052980;28;20131;-67
2022/11/06 01:51:37;;;;;;;14.05;9.25;;;;;;;1.92;100.00;97016.81;5064898;28;20045;-68
2022/11/06 01:54:06;;;;;;;15.93;9.75;;;;;;;1.93;100.00;97013.00;5041946;28;20041;-66
2022/11/06 01:56:32;;;;;;;16.40;9.57;;;;;;;1.93;100.00;97004.91;5043614;28;20040;-67
2022/11/06 01:58:58;;;;;;;15.60;9.45;;;;;;;1.82;100.00;97007.03;5036569;28;20048;-68
2022/11/06 02:01:23;;;;;;;14.38;9.25;;;;;;;1.79;100.00;96996.03;5037422;28;20468;-67
2022/11/06 02:03:59;;;;;;;15.40;9.63;;;;;;;1.90;100.00;97010.91;5042717;28;20132;-68
2022/11/06 02:06:25;;;;;;;17.48;9.23;;;;;;;1.74;100.00;97015.81;5037095;28;20059;-67
2022/11/06 02:08:51;;;;;;;17.75;8.90;;;;;;;1.76;100.00;97005.50;5037239;28;20116;-66
2022/11/06 02:11:16;;;;;;;12.07;9.07;;;;;;;1.76;100.00;97000.09;5040840;28;20045;-67
2022/11/06 02:13:53;;;;;;;14.98;9.23;;;;;;;1.71;100.00;97002.91;5041797;28;20045;-67
2022/11/06 02:16:27;;;;;;;13.45;8.63;;;;;;;1.64;100.00;97002.50;5056572;28;20084;-68
2022/11/06 02:19:16;;;;;;;13.32;8.82;;;;;;;1.65;100.00;97001.44;5064739;28;20067;-68
2022/11/06 02:22:12;;;;;;;16.17;9.52;;;;;;;1.68;100.00;96992.72;5060854;28;20053;-69
2022/11/06 02:25:03;;;;;;;13.98;8.80;;;;;;;1.62;100.00;96997.44;5043370;28;20438;-67
2022/11/06 02:27:30;;;;;;;11.95;8.80;;;;;;;1.59;100.00;96991.84;4994405;28;20041;-69
2022/11/06 02:30:01;;;;;;;16.27;9.05;;;;;;;1.63;100.00;96996.31;5041675;28;20523;-67
2022/11/06 02:32:42;;;;;;;16.83;8.43;;;;;;;1.65;100.00;96996.03;5039667;28;20073;-67
2022/11/06 02:35:18;;;;;;;14.75;9.07;;;;;;;1.60;100.00;96996.91;5037613;28;20047;-67
2022/11/06 02:37:46;;;;;;;14.38;9.13;;;;;;;1.68;100.00;96980.03;5041313;28;20494;-68
2022/11/06 02:40:14;;;;;;;14.63;9.02;;;;;;;1.58;100.00;96972.13;5037123;28;20049;-68
2022/11/06 02:42:45;;;;;;;15.50;9.40;;;;;;;1.34;100.00;96973.13;5042169;28;20055;-68
2022/11/06 02:45:14;;;;;;;16.65;10.27;;;;;;;1.48;100.00;96975.06;5034806;28;20098;-69
2022/11/06 02:47:41;;;;;;;20.60;9.90;;;;;;;1.57;100.00;96965.16;5043670;28;20048;-69
2022/11/06 02:50:20;;;;;;;15.43;9.25;;;;;;;1.63;100.00;96963.13;5038815;28;20291;-68
2022/11/06 02:53:00;;;;;;;13.98;9.23;;;;;;;1.59;100.00;96965.63;5033640;28;20048;-68
2022/11/06 02:55:50;;;;;;;15.80;9.85;;;;;;;1.50;100.00;96968.25;5032024;28;20101;-67
2022/11/06 02:58:22;;;;;;;14.38;9.20;;;;;;;1.67;100.00;96956.03;5036856;28;20044;-68
2022/11/06 03:00:57;;;;;;;15.02;9.25;;;;;;;1.67;100.00;96956.03;5041798;28;20037;-67
2022/11/06 03:03:27;;;;;;;16.15;9.00;;;;;;;1.61;100.00;96955.34;5036729;28;20051;-67
2022/11/06 03:05:58;;;;;;;15.65;9.65;;;;;;;1.69;100.00;96949.22;5045590;28;20057;-68
2022/11/06 03:08:43;;;;;;;14.70;8.98;;;;;;;1.72;100.00;96943.22;5039225;28;20489;-69
2022/11/06 03:11:20;;;;;;;16.95;10.05;;;;;;;1.77;100.00;96942.31;5035359;28;20502;-67
2022/11/06 03:14:18;;;;;;;14.88;9.32;;;;;;;1.65;100.00;96940.13;5041763;28;20036;-68
2022/11/06 03:17:22;;;;;;;15.95;9.90;;;;;;;1.65;100.00;96942.81;5039357;28;20044;-68
2022/11/06 03:19:52;;;;;;;17.80;10.10;;;;;;;1.54;100.00;96949.53;4996171;28;20348;-67
2022/11/06 03:22:32;;;;;;;14.60;9.10;;;;;;;1.43;100.00;96942.75;5028238;28;20103;-67
2022/11/06 03:25:08;;;;;;;16.63;8.95;;;;;;;1.41;100.00;96943.06;5034716;28;20407;-67
2022/11/06 03:27:45;;;;;;;13.90;9.27;;;;;;;1.37;100.00;96933.97;5038058;28;20041;-69
2022/11/06 03:30:12;;;;;;;17.83;10.38;;;;;;;1.34;100.00;96929.16;5034805;28;20128;-67
2022/11/06 03:32:55;;;;;;;18.10;10.68;;;;;;;1.39;100.00;96930.94;5038434;28;20776;-68
2022/11/06 03:35:31;;;;;;;17.10;10.52;;;;;;;1.57;100.00;96937.31;5033072;28;20413;-67
2022/11/06 03:38:04;;;;;;;14.07;9.10;;;;;;;1.58;100.00;96934.31;5043082;28;20041;-68
2022/11/06 03:40:33;;;;;;;14.00;9.35;;;;;;;1.58;100.00;96928.13;5042745;28;20063;-68
2022/11/06 03:43:02;;;;;;;15.95;10.15;;;;;;;1.52;100.00;96922.84;5046874;28;20041;-68
2022/11/06 03:45:31;;;;;;;17.00;9.85;;;;;;;1.48;100.00;96929.94;5045184;28;20037;-68
2022/11/06 03:48:06;;;;;;;15.90;9.70;;;;;;;1.56;100.00;96936.53;5042041;28;20045;-69
2022/11/06 03:50:37;;;;;;;13.98;9.65;;;;;;;1.37;100.00;96936.66;5042465;28;20044;-68
2022/11/06 03:53:13;;;;;;;15.13;9.73;;;;;;;1.41;100.00;96928.78;5037525;28;20053;-67
2022/11/06 03:55:45;;;;;;;14.73;9.50;;;;;;;1.28;100.00;96927.69;5043363;28;20135;-69
2022/11/06 03:58:17;;;;;;;14.07;9.60;;;;;;;1.35;100.00;96928.06;5040216;28;20106;-69
2022/11/06 04:00:43;;;;;;;14.65;9.40;;;;;;;1.48;100.00;96929.94;5051591;28;20179;-70
2022/11/06 04:03:21;;;;;;;17.55;9.77;;;;;;;1.51;100.00;96937.47;5046670;28;20071;-71
2022/11/06 04:05:53;;;;;;;14.95;9.75;;;;;;;1.47;100.00;96933.75;5060653;28;20100;-70
2022/11/06 04:14:01;;;;;;;15.88;9.57;;;;;;;1.25;100.00;96920.97;5064272;28;20033;-69
2022/11/06 04:16:52;;;;;;;13.50;8.75;;;;;;;1.24;100.00;96918.56;5058626;28;20052;-69
2022/11/06 04:19:19;;;;;;;15.55;8.48;;;;;;;1.18;100.00;96907.09;5059703;28;20029;-68
2022/11/06 04:22:00;;;;;;;14.60;8.75;;;;;;;1.18;100.00;96911.69;5061755;28;20096;-70
2022/11/06 04:27:49;;;;;;;13.57;8.52;;;;;;;1.17;100.00;96910.06;5047706;28;20045;-69
2022/11/06 04:30:19;;;;;;;16.85;9.57;;;;;;;0.86;100.00;96916.84;5061137;28;20052;-69
2022/11/06 04:33:21;;;;;;;15.02;9.55;;;;;;;0.69;100.00;96906.66;5065722;28;20049;-69
2022/11/06 04:36:10;;;;;;;14.18;9.48;;;;;;;0.49;100.00;96901.63;5061411;28;20067;-69
2022/11/06 04:38:54;;;;;;;18.47;10.20;;;;;;;0.28;100.00;96901.19;5063525;28;20044;-69
2022/11/06 04:41:50;;;;;;;16.52;10.05;;;;;;;0.28;100.00;96898.47;5060347;28;20048;-69
2022/11/06 04:44:29;;;;;;;17.33;10.07;;;;;;;0.33;100.00;96877.63;5060584;28;20049;-68
2022/11/06 04:46:59;;;;;;;17.00;9.75;;;;;;;0.30;100.00;96875.53;5057860;28;20056;-69
2022/11/06 04:49:28;;;;;;;15.18;9.13;;;;;;;0.36;100.00;96873.53;5049117;28;20306;-69
2022/11/06 04:51:55;;;;;;;15.38;9.85;;;;;;;0.54;100.00;96869.19;5067679;28;20037;-68
2022/11/06 04:54:21;;;;;;;16.23;9.48;;;;;;;0.66;100.00;96872.19;5060995;28;20037;-69
2022/11/06 04:56:47;;;;;;;15.05;9.05;;;;;;;0.69;100.00;96878.91;5067036;28;21402;-68
2022/11/06 04:59:14;;;;;;;16.95;9.63;;;;;;;0.74;100.00;96876.91;5050535;28;20045;-69
2022/11/06 05:01:39;;;;;;;18.52;10.80;;;;;;;0.63;100.00;96869.28;5061039;28;20044;-70
2022/11/06 05:04:05;;;;;;;15.45;10.00;;;;;;;0.53;100.00;96865.69;5042998;28;20029;-69
2022/11/06 05:06:30;;;;;;;16.58;10.68;;;;;;;0.48;100.00;96875.78;5042713;28;20033;-70
2022/11/06 05:08:57;;;;;;;18.08;10.65;;;;;;;0.55;100.00;96871.59;5037429;28;20478;-70
2022/11/06 05:11:23;;;;;;;20.25;11.25;;;;;;;0.64;100.00;96868.22;5050682;28;20650;-69
2022/11/06 05:13:48;;;;;;;15.15;9.77;;;;;;;0.75;100.00;96864.22;5072665;28;20511;-70
2022/11/06 05:16:14;;;;;;;19.88;11.63;;;;;;;0.87;100.00;96864.53;5072084;28;20071;-68
2022/11/06 05:18:39;;;;;;;16.38;10.10;;;;;;;1.09;100.00;96858.44;5057882;28;20045;-70
2022/11/06 05:23:49;;;;;;;15.23;9.38;;;;;;;0.94;100.00;96856.06;5061759;28;20056;-68
2022/11/06 05:26:17;;;;;;;16.40;9.65;;;;;;;1.13;100.00;96848.66;5052161;28;20049;-67
2022/11/06 05:28:42;;;;;;;15.25;10.18;;;;;;;1.04;100.00;96845.03;5044091;28;20037;-69
2022/11/06 05:31:08;;;;;;;14.27;9.43;;;;;;;1.05;100.00;96849.34;5038537;28;20867;-68
2022/11/06 05:33:33;;;;;;;16.23;9.38;;;;;;;1.18;100.00;96853.13;5042517;28;20072;-69
2022/11/06 05:36:06;;;;;;;15.05;9.20;;;;;;;1.27;100.00;96861.31;5043758;28;20066;-70
2022/11/06 05:38:32;;;;;;;14.05;9.13;;;;;;;1.29;100.00;96864.50;5043452;28;20098;-70
2022/11/06 05:40:58;;;;;;;14.50;9.55;;;;;;;1.39;100.00;96864.28;5045079;28;20048;-70
2022/11/06 05:43:24;;;;;;;13.30;8.85;;;;;;;1.45;100.00;96856.88;5041666;28;20041;-70
2022/11/06 05:45:49;;;;;;;12.38;8.88;;;;;;;1.28;100.00;96855.63;5046167;28;20362;-71
2022/11/06 05:48:15;;;;;;;15.43;9.63;;;;;;;1.19;100.00;96845.81;5039154;28;20507;-69
2022/11/06 05:50:40;;;;;;;14.95;9.25;;;;;;;1.37;100.00;96854.88;5050410;28;20049;-67
2022/11/06 05:53:05;;;;;;;12.95;8.93;;;;;;;1.49;100.00;96855.94;5040208;28;20112;-69
2022/11/06 05:55:31;;;;;;;16.20;9.15;;;;;;;1.67;100.00;96853.41;5041609;28;20140;-69
2022/11/06 05:57:56;;;;;;;15.45;8.60;;;;;;;1.78;100.00;96851.28;5041865;28;20389;-70
2022/11/06 06:00:22;;;;;;;14.02;8.95;;;;;;;1.88;100.00;96848.34;5035071;28;20061;-68
2022/11/06 06:02:47;;;;;;;12.85;8.93;;;;;;;1.98;100.00;96844.59;5041663;28;20040;-69
2022/11/06 06:05:13;;;;;;;12.57;8.38;;;;;;;2.01;100.00;96842.06;5038347;28;20037;-68
2022/11/06 06:07:39;;;;;;;12.52;8.52;;;;;;;2.03;100.00;96852.56;5041682;28;20367;-69
2022/11/06 06:10:06;;;;;;;14.38;8.38;;;;;;;2.10;100.00;96851.03;5038782;28;20060;-68
2022/11/06 06:12:31;;;;;;;12.90;8.48;;;;;;;2.26;100.00;96845.25;5037196;28;20040;-69
2022/11/06 06:14:57;;;;;;;13.48;8.30;;;;;;;2.30;100.00;96851.63;5042151;28;20536;-69
2022/11/06 06:17:22;;;;;;;11.85;7.60;;;;;;;2.37;100.00;96843.88;5035880;28;20086;-68
2022/11/06 06:19:48;;;;;;;10.60;7.43;;;;;;;2.28;100.00;96845.75;5042597;28;20441;-69
2022/11/06 06:22:13;;;;;;;11.48;7.22;;;;;;;2.35;100.00;96842.63;5037142;28;20045;-69
2022/11/06 06:24:39;;;;;;;9.93;7.05;;;;;;;2.46;100.00;96841.25;5039544;28;20486;-70
2022/11/06 06:27:05;;;;;;;11.77;7.75;;;;;;;2.60;100.00;96846.56;5037142;28;20037;-69
2022/11/06 06:29:31;;;;;;;12.55;7.53;;;;;;;2.65;100.00;96844.50;5043668;28;20033;-69
2022/11/06 06:31:56;;;;;;;13.23;7.40;;;;;;;2.66;100.00;96850.72;5041106;28;20037;-68
2022/11/06 06:34:21;;;;;;;14.15;9.07;;;;;;;2.76;100.00;96849.66;5036450;28;20322;-70
2022/11/06 06:36:52;;;;;;;14.30;7.72;;;;;;;2.80;100.00;96843.28;5030767;28;20099;-70
2022/11/06 06:39:18;;;;;;;10.98;7.47;;;;;;;2.96;100.00;96840.97;5038992;28;20053;-68
2022/11/06 06:41:45;;;;;;;11.13;7.80;;;;;;;3.10;100.00;96837.34;5058427;28;20048;-67
2022/11/06 06:44:12;;;;;;;12.23;7.65;;;;;;;3.24;100.00;96841.53;5038942;28;20053;-68
2022/11/06 06:46:37;;;;;;;12.40;8.02;;;;;;;3.15;100.00;96843.44;5042570;28;20115;-68
2022/11/06 06:49:03;;;;;;;12.90;7.78;;;;;;;3.24;100.00;96841.53;5041188;28;20048;-69
2022/11/06 06:51:28;;;;;;;11.73;8.45;;;;;;;3.37;100.00;96839.81;5036458;28;20067;-68
2022/11/06 06:53:53;;;;;;;17.73;11.05;;;;;;;2.94;100.00;96837.78;5041743;28;20048;-68
2022/11/06 06:56:19;;;;;;;16.83;10.95;;;;;;;2.60;100.00;96830.34;5033188;28;20422;-68
2022/11/06 06:58:46;;;;;;;18.90;11.90;;;;;;;2.83;100.00;96826.44;5040753;28;20406;-68
2022/11/06 07:01:12;;;;;;;16.75;10.25;;;;;;;3.33;100.00;96832.63;5038639;28;20056;-67
2022/11/06 07:03:38;;;;;;;16.13;10.35;;;;;;;3.87;100.00;96826.91;5039499;28;20048;-68
2022/11/06 07:06:04;;;;;;;11.50;7.68;;;;;;;3.86;100.00;96825.34;5035017;28;20079;-68
2022/11/06 07:08:30;;;;;;;16.02;7.95;;;;;;;4.64;100.00;96830.59;5042642;28;20049;-70
2022/11/06 07:11:00;;;;;;;10.80;7.18;;;;;;;5.59;100.00;96847.50;5042799;28;20543;-69
2022/11/06 07:13:25;;;;;;;8.77;5.63;;;;;;;6.30;100.00;96856.72;5037185;28;20045;-71
2022/11/06 07:15:51;;;;;;;8.23;5.00;;;;;;;6.63;100.00;96855.91;5039964;28;20041;-71
2022/11/06 07:18:16;;;;;;;8.07;5.05;;;;;;;6.96;100.00;96842.22;5036290;28;20105;-69
2022/11/06 07:20:42;;;;;;;7.15;4.82;;;;;;;6.70;100.00;96834.38;5042443;28;20486;-69
2022/11/06 07:23:08;;;;;;;7.70;5.13;;;;;;;5.23;100.00;96823.63;5036061;28;20501;-69
2022/11/06 07:25:34;;;;;;;6.90;5.45;;;;;;;4.06;100.00;96826.59;5046394;28;20072;-69
2022/11/06 07:28:01;;;;;;;7.78;5.65;;;;;;;3.85;100.00;96821.81;5045147;28;20037;-70
2022/11/06 07:30:27;;;;;;;8.57;5.47;;;;;;;3.65;100.00;96825.97;5039536;28;20084;-68
2022/11/06 07:32:52;;;;;;;11.18;5.60;;;;;;;4.60;100.00;96814.16;5038985;28;20060;-70
2022/11/06 07:35:25;;;;;;;38.63;15.77;;;;;;;4.64;100.00;96803.47;5019470;28;20045;-70
2022/11/06 07:37:51;;;;;;;26.42;21.15;;;;;;;4.20;100.00;96800.09;5041715;28;20573;-70
2022/11/06 07:40:16;;;;;;;20.35;12.23;;;;;;;3.87;100.00;96787.09;5036095;28;20126;-70
2022/11/06 07:42:42;;;;;;;14.48;11.85;;;;;;;3.97;100.00;96778.59;5040424;28;20140;-69
2022/11/06 07:45:08;;;;;;;10.85;8.02;;;;;;;4.02;100.00;96785.78;5034935;28;20076;-70
2022/11/06 07:47:33;;;;;;;28.83;20.23;;;;;;;4.28;100.00;96780.28;5039104;28;20145;-70
2022/11/06 07:49:58;;;;;;;18.10;13.07;;;;;;;4.55;100.00;96776.34;5037029;28;20183;-70
2022/11/06 07:52:24;;;;;;;6.95;5.50;;;;;;;4.72;100.00;96763.88;5030110;28;20029;-69
2022/11/06 07:54:50;;;;;;;6.55;4.88;;;;;;;4.59;100.00;96758.34;5041644;28;20040;-69
2022/11/06 07:57:15;;;;;;;11.00;7.65;;;;;;;4.32;100.00;96764.16;5035162;28;20175;-70
2022/11/06 07:59:41;;;;;;;8.38;6.38;;;;;;;4.44;100.00;96761.56;5040434;28;20048;-69
2022/11/06 08:02:10;;;;;;;7.05;5.57;;;;;;;3.51;100.00;96754.91;5031370;28;20098;-68
2022/11/06 08:04:36;;;;;;;13.25;8.43;;;;;;;3.41;100.00;96746.00;5041742;28;20049;-69
2022/11/06 08:07:01;;;;;;;10.55;7.85;;;;;;;3.59;100.00;96744.06;5041124;28;20048;-70
2022/11/06 08:09:26;;;;;;;10.05;7.85;;;;;;;3.56;100.00;96727.66;5039154;28;20056;-70
2022/11/06 08:11:52;;;;;;;8.77;6.75;;;;;;;3.74;100.00;96721.09;5046324;28;20043;-70
2022/11/06 08:14:17;;;;;;;9.10;7.18;;;;;;;3.70;100.00;96722.06;5037721;28;20041;-70
2022/11/06 08:16:43;;;;;;;9.90;6.80;;;;;;;3.82;100.00;96717.59;5043909;28;20410;-71
2022/11/06 08:19:08;;;;;;;11.02;7.85;;;;;;;3.80;100.00;96709.00;5039923;28;20053;-70
2022/11/06 08:21:33;;;;;;;10.15;6.97;;;;;;;4.06;100.00;96707.34;5043033;28;20521;-70
2022/11/06 08:23:59;;;;;;;9.77;7.13;;;;;;;4.35;100.00;96693.03;5043429;28;20290;-71
2022/11/06 08:26:25;;;;;;;12.93;9.38;;;;;;;4.21;100.00;96690.53;5039348;28;20552;-70
2022/11/06 08:28:50;;;;;;;9.43;7.82;;;;;;;4.38;100.00;96690.44;5042963;28;20106;-70
2022/11/06 08:31:16;;;;;;;9.35;7.10;;;;;;;4.54;100.00;96679.06;5040349;28;20421;-70
2022/11/06 08:33:41;;;;;;;9.57;6.35;;;;;;;4.78;100.00;96676.50;5044503;28;20343;-70
2022/11/06 08:36:08;;;;;;;8.25;6.22;;;;;;;4.75;100.00;96676.38;5031153;28;20379;-70
2022/11/06 08:38:35;;;;;;;8.43;6.65;;;;;;;5.16;100.00;96669.38;5043274;28;20049;-70
2022/11/06 08:41:10;;;;;;;6.78;5.43;;;;;;;5.33;100.00;96669.22;5044856;28;20405;-71
2022/11/06 08:43:36;;;;;;;8.05;6.63;;;;;;;5.68;100.00;96662.66;5044835;28;20041;-69
2022/11/06 08:46:03;;;;;;;5.75;4.70;;;;;;;5.51;100.00;96652.75;5043927;28;20033;-71
2022/11/06 08:48:28;;;;;;;5.78;4.80;;;;;;;5.49;100.00;96649.59;5040106;28;20490;-70
2022/11/06 08:50:54;;;;;;;4.60;3.42;;;;;;;5.82;100.00;96649.56;5041028;28;20128;-71
2022/11/06 08:53:19;;;;;;;6.43;3.88;;;;;;;6.59;100.00;96650.88;5039251;28;20045;-69
2022/11/06 08:55:45;;;;;;;5.57;3.92;;;;;;;7.07;100.00;96650.00;5043488;28;20080;-69
2022/11/06 08:58:10;;;;;;;5.63;3.53;;;;;;;6.62;100.00;96653.72;5052863;28;20028;-68
2022/11/06 09:00:36;;;;;;;6.60;4.18;;;;;;;7.02;100.00;96644.00;5066706;28;20037;-69
2022/11/06 09:03:08;;;;;;;3.00;2.45;;;;;;;6.93;100.00;96641.41;5050390;28;20072;-67
2022/11/06 09:05:34;;;;;;;5.45;3.03;;;;;;;7.27;100.00;96634.63;5045770;28;20076;-69
2022/11/06 09:08:00;;;;;;;3.78;2.75;;;;;;;6.66;100.00;96630.13;5042843;28;20126;-70
2022/11/06 09:10:26;;;;;;;10.48;6.30;;;;;;;7.17;100.00;96618.78;5040113;28;20044;-69
2022/11/06 09:12:52;;;;;;;3.97;2.53;;;;;;;6.74;100.00;96614.81;5055776;28;20055;-70
2022/11/06 09:15:19;;;;;;;4.60;2.38;;;;;;;8.26;96.84;96616.91;5045039;28;20104;-69
2022/11/06 09:17:46;;;;;;;2.95;1.95;;;;;;;9.14;87.98;96628.25;5040258;28;20099;-70
2022/11/06 09:20:13;;;;;;;4.13;2.90;;;;;;;8.96;89.54;96627.09;5038608;28;20045;-69
2022/11/06 09:22:38;;;;;;;3.55;2.45;;;;;;;7.63;96.19;96610.25;5046104;28;20075;-70
2022/11/06 09:25:05;;;;;;;4.25;2.83;;;;;;;6.95;100.00;96614.66;5053171;28;20033;-68
2022/11/06 09:27:31;;;;;;;4.50;3.80;;;;;;;7.43;99.63;96617.53;5064656;28;20073;-69
2022/11/06 09:29:56;;;;;;;3.00;2.30;;;;;;;8.42;89.22;96623.94;5052233;28;20063;-71
2022/11/06 09:32:22;;;;;;;6.18;3.05;;;;;;;8.92;91.82;96631.69;5042773;28;20061;-71
2022/11/06 09:34:48;;;;;;;5.72;2.80;;;;;;;10.58;78.64;96641.00;5040953;28;20048;-71
2022/11/06 09:37:13;;;;;;;4.32;1.73;;;;;;;11.71;70.40;96639.34;5038251;28;20413;-70
2022/11/06 09:39:39;;;;;;;3.13;1.50;;;;;;;12.88;62.97;96633.31;5044401;28;20041;-69
2022/11/06 09:42:40;;;;;;;6.78;3.60;;;;;;;11.29;65.40;96638.47;5037639;28;20049;-68
2022/11/06 09:45:21;;;;;;;1.90;1.17;;;;;;;12.62;59.29;96640.59;5038626;28;20049;-69
2022/11/06 09:48:05;;;;;;;1.70;1.20;;;;;;;13.24;56.79;96644.50;5043540;28;20041;-69
2022/11/06 09:50:37;;;;;;;1.80;1.17;;;;;;;12.09;60.93;96640.94;5040058;28;20037;-69
2022/11/06 09:53:12;;;;;;;1.90;1.25;;;;;;;12.94;57.30;96634.53;5040411;28;20043;-65
2022/11/06 09:55:41;;;;;;;3.08;1.52;;;;;;;13.11;57.26;96627.56;5041725;28;20049;-68
2022/11/06 09:58:15;;;;;;;2.47;1.45;;;;;;;10.99;63.28;96614.59;5040477;28;20086;-71
2022/11/06 10:00:41;;;;;;;1.58;1.23;;;;;;;10.11;70.84;96604.66;5043471;28;20037;-70
2022/11/06 10:03:43;;;;;;;1.95;1.25;;;;;;;11.35;67.69;96595.06;5040142;28;20049;-69
2022/11/06 10:06:09;;;;;;;2.22;1.13;;;;;;;12.81;59.36;96595.56;5036071;28;20707;-71
2022/11/06 10:08:35;;;;;;;2.20;1.20;;;;;;;12.92;57.49;96590.13;5044286;28;20040;-69
2022/11/06 10:11:06;;;;;;;1.67;1.15;;;;;;;13.20;56.34;96588.72;5027041;28;20490;-69
2022/11/06 10:13:47;;;;;;;2.22;1.30;;;;;;;13.10;56.47;96587.47;5044741;28;20379;-68
2022/11/06 10:16:35;;;;;;;2.70;1.20;;;;;;;13.20;57.38;96595.00;5038972;28;20045;-69
2022/11/06 10:19:09;;;;;;;1.40;1.10;;;;;;;13.79;55.98;96605.03;5039518;28;20033;-69
2022/11/06 10:21:50;;;;;;;3.95;1.45;;;;;;;14.14;54.74;96595.25;5044718;28;20055;-68
2022/11/06 10:24:34;;;;;;;2.05;0.93;;;;;;;14.56;52.74;96593.66;5041073;28;20041;-69
2022/11/06 10:27:08;;;;;;;3.13;1.20;;;;;;;14.60;51.51;96596.44;5044036;28;20041;-69
2022/11/06 10:29:52;;;;;;;2.95;1.58;;;;;;;13.94;54.76;96603.09;5025819;28;20068;-69
2022/11/06 10:32:42;;;;;;;3.83;1.13;;;;;;;13.99;54.84;96594.47;5039914;28;20553;-69
2022/11/06 10:35:20;;;;;;;3.95;2.10;;;;;;;13.71;54.76;96584.19;5031703;28;20475;-72
2022/11/06 10:37:51;;;;;;;3.67;1.20;;;;;;;14.44;53.69;96577.53;5035203;28;20086;-68
2022/11/06 10:40:21;;;;;;;1.73;1.20;;;;;;;14.52;51.74;96559.81;5040098;28;20075;-70
2022/11/06 10:42:56;;;;;;;2.55;1.40;;;;;;;12.54;57.28;96555.78;5040344;28;20067;-69
2022/11/06 10:45:22;;;;;;;2.83;1.77;;;;;;;12.78;57.94;96549.63;5036553;28;20830;-70
2022/11/06 10:47:54;;;;;;;2.58;1.20;;;;;;;13.21;57.23;96543.53;5051651;28;20074;-70
2022/11/06 10:50:23;;;;;;;1.77;1.25;;;;;;;11.16;66.08;96528.25;5047374;28;20040;-69
2022/11/06 10:52:54;;;;;;;1.73;1.30;;;;;;;9.46;78.20;96526.97;5042905;28;20110;-69
2022/11/06 10:55:57;;;;;;;2.17;1.40;;;;;;;8.60;87.54;96520.59;5036756;28;20040;-69
2022/11/06 10:58:28;;;;;;;2.40;1.60;;;;;;;8.89;88.57;96520.41;5036147;28;20250;-68
2022/11/06 11:00:58;;;;;;;3.15;1.50;;;;;;;8.74;85.55;96541.19;5041584;28;20037;-69
2022/11/06 11:03:45;;;;;;;7.03;2.08;;;;;;;10.35;78.42;96543.25;5037343;28;20485;-69
2022/11/06 11:06:11;;;;;;;3.42;1.95;;;;;;;11.47;73.49;96540.75;5035329;28;20049;-71
2022/11/06 11:08:42;;;;;;;2.15;1.45;;;;;;;11.57;68.95;96539.28;5041960;28;20148;-70
2022/11/06 11:11:14;;;;;;;2.55;1.38;;;;;;;10.36;73.81;96524.91;5036385;28;20044;-69
2022/11/06 11:13:41;;;;;;;2.88;1.60;;;;;;;9.83;78.45;96525.63;5031068;28;20431;-68
2022/11/06 11:16:17;;;;;;;3.70;1.90;;;;;;;10.29;79.87;96522.81;5034391;28;20043;-68
2022/11/06 11:18:44;;;;;;;2.15;1.50;;;;;;;10.91;75.14;96519.75;5041703;28;20044;-69
2022/11/06 11:21:26;;;;;;;2.83;1.45;;;;;;;13.07;64.81;96525.03;5036630;28;20041;-68
2022/11/06 11:23:58;;;;;;;5.20;2.33;;;;;;;13.99;59.48;96520.13;5040242;28;20109;-71
2022/11/06 11:26:27;;;;;;;4.55;1.63;;;;;;;14.22;56.53;96525.19;5036956;28;20666;-69
2022/11/06 11:28:57;;;;;;;1.85;1.25;;;;;;;14.03;58.83;96520.13;5041762;28;20124;-69
2022/11/06 11:31:32;;;;;;;2.92;1.20;;;;;;;13.90;57.40;96515.00;5035776;28;20055;-68
2022/11/06 11:34:01;;;;;;;4.60;1.30;;;;;;;13.57;59.03;96500.41;5041967;28;20047;-70
2022/11/06 11:36:54;;;;;;;2.53;1.30;;;;;;;15.13;52.66;96495.47;5035623;28;20041;-70
2022/11/06 11:39:24;;;;;;;2.08;1.20;;;;;;;15.45;51.91;96498.06;5029335;28;20049;-70
2022/11/06 11:41:50;;;;;;;3.63;1.25;;;;;;;15.98;49.61;96490.59;5032199;28;20041;-71
2022/11/06 11:44:18;;;;;;;2.05;1.10;;;;;;;16.30;48.98;96490.31;5042775;28;20056;-70
2022/11/06 11:46:53;;;;;;;9.65;6.78;;;;;;;12.02;63.45;96487.16;5048500;28;20049;-70
2022/11/06 11:49:25;;;;;;;13.25;7.60;;;;;;;11.32;68.19;96472.44;5045247;28;20040;-71
2022/11/06 11:51:50;;;;;;;1.63;1.20;;;;;;;13.31;61.83;96473.28;5048902;28;20079;-70
2022/11/06 11:54:22;;;;;;;2.45;1.50;;;;;;;13.54;62.25;96459.94;5047764;28;20128;-69